Weather at Palma de Mallorca Airport

Public forecast

Using degrees Celsius for public forecast. Weather courtesy of forecast.io.

Current aviation weather report (METAR) for Palma de Mallorca Airport

Retrieved 2022/01/25 05:30 UTC (6 minutes ago):

LEPA 250530Z 06003KT 9999 FEW022 BKN031 04/04 Q1031 NOSIG

Aviation forecast (TAF) for Palma de Mallorca Airport

Retrieved 2022-01-25 00:27 UTC (5 hours ago):

TAF LEPA 242300Z 2500/2524 05005KT 9999 FEW020 SCT040 TX13/2513Z TN03/2507Z